Owls Head, Maine
Current Conditions -  °F | °C
As of 10:15 PM on Saturday 20 Dec 2014 (Local Time) from KRKD Reporting Station
Broken Clouds Broken Clouds  
Wind Chill: 19°   Ceiling: 3000
Heat Index: 25°   Visibility: 10mi
Dew Point: 19°   Wind: 5mph
Humidity: 80%   Direction: 310°NW
Pressure: 30.35"   Gusts: NA
Location:  44.08°N, 69.06°W
Report Text: KRKD 210315Z AUTO 31004KT 10SM BKN030 M04/M07 A3035 RMK AO1
Loading
Personal Weather Stations






























Interactive Weather Map New forecast layout! Learn more

10-Day Weather Forecast

Advertisements
Track Severe Weather on mobile